Time;durP1;ratioP1;P1;durP2;ratioP2;P2;SDS_P1;SDS_P2;PMS_P1;PMS_P2;Temp;Humidity;BMP_temperature;BMP_pressure;BME280_temperature;BME280_humidity;BME280_pressure;Samples;Min_cycle;Max_cycle;Signal;HPM_P1;HPM_P2
2022/06/21 00:01:15;;;;;;;9.80;4.75;;;;;;;13.10;100.00;101761.66;5034235;28;20108;-71
2022/06/21 00:03:40;;;;;;;19.52;4.90;;;;;;;13.14;100.00;101755.56;5034250;28;20037;-72
2022/06/21 00:06:06;;;;;;;12.38;4.50;;;;;;;13.24;100.00;101756.66;5031533;28;20037;-73
2022/06/21 00:08:36;;;;;;;10.65;4.63;;;;;;;13.13;100.00;101747.59;5032580;28;20029;-72
2022/06/21 00:11:02;;;;;;;11.77;4.30;;;;;;;13.10;100.00;101742.25;5029578;28;20381;-72
2022/06/21 00:13:34;;;;;;;10.55;4.30;;;;;;;13.07;100.00;101742.19;5033663;28;20044;-71
2022/06/21 00:16:12;;;;;;;10.98;4.03;;;;;;;13.02;100.00;101739.44;5032072;28;20762;-72
2022/06/21 00:18:39;;;;;;;7.05;4.03;;;;;;;13.00;100.00;101743.81;5028910;28;20040;-72
2022/06/21 00:21:15;;;;;;;9.13;3.92;;;;;;;13.01;100.00;101748.25;5033475;28;20104;-72
2022/06/21 00:23:41;;;;;;;15.25;4.50;;;;;;;13.15;100.00;101736.19;5033211;28;20036;-72
2022/06/21 00:26:12;;;;;;;12.13;4.47;;;;;;;13.29;100.00;101743.50;5028766;28;20388;-72
2022/06/21 00:28:39;;;;;;;13.43;4.93;;;;;;;13.12;100.00;101736.16;5033634;28;20417;-72
2022/06/21 00:31:09;;;;;;;18.25;4.95;;;;;;;13.10;100.00;101737.88;5028450;28;20550;-72
2022/06/21 00:33:35;;;;;;;12.10;5.05;;;;;;;13.19;100.00;101741.56;5030098;28;20072;-72
2022/06/21 00:36:03;;;;;;;13.95;5.68;;;;;;;13.41;100.00;101738.50;5031856;28;20461;-72
2022/06/21 00:38:32;;;;;;;9.00;4.43;;;;;;;13.33;100.00;101734.78;5032658;28;20064;-73
2022/06/21 00:41:02;;;;;;;10.88;4.70;;;;;;;13.12;100.00;101727.34;5032519;28;20120;-71
2022/06/21 00:43:32;;;;;;;14.00;4.40;;;;;;;12.99;100.00;101726.19;5036512;28;20548;-72
2022/06/21 00:45:59;;;;;;;13.82;5.05;;;;;;;12.92;100.00;101721.63;5029008;28;20123;-72
2022/06/21 00:48:38;;;;;;;14.45;4.75;;;;;;;12.82;100.00;101708.22;5030736;28;20037;-72
2022/06/21 00:51:17;;;;;;;9.40;4.25;;;;;;;12.78;100.00;101716.94;5030133;28;20108;-72
2022/06/21 00:53:49;;;;;;;6.53;4.47;;;;;;;12.85;100.00;101714.44;5032358;28;20044;-72
2022/06/21 00:56:36;;;;;;;16.42;5.55;;;;;;;12.77;100.00;101711.63;5031609;28;20048;-72
2022/06/21 00:59:20;;;;;;;14.73;5.85;;;;;;;12.97;100.00;101714.69;5023177;28;20026;-72
2022/06/21 01:01:46;;;;;;;10.35;4.43;;;;;;;12.93;100.00;101707.56;5031008;28;20040;-72
2022/06/21 01:04:16;;;;;;;11.35;5.05;;;;;;;12.80;100.00;101704.69;5032494;28;20163;-72
2022/06/21 01:06:47;;;;;;;12.98;4.13;;;;;;;12.73;100.00;101710.66;5022603;28;20030;-73
2022/06/21 01:09:19;;;;;;;11.27;5.18;;;;;;;12.60;100.00;101700.69;5026505;28;20534;-72
2022/06/21 01:11:56;;;;;;;6.82;4.18;;;;;;;12.65;100.00;101699.06;5033376;28;20091;-71
2022/06/21 01:14:23;;;;;;;9.82;4.85;;;;;;;12.60;100.00;101693.69;5033148;28;20021;-71
2022/06/21 01:16:49;;;;;;;11.57;4.93;;;;;;;12.59;100.00;101691.00;5031026;28;20040;-72
2022/06/21 01:19:43;;;;;;;12.48;5.10;;;;;;;12.52;100.00;101689.06;5031123;28;20042;-72
2022/06/21 01:22:47;;;;;;;14.70;4.90;;;;;;;12.52;100.00;101692.63;5031672;28;20579;-73
2022/06/21 01:25:33;;;;;;;12.43;4.80;;;;;;;12.60;100.00;101687.50;5031505;28;20037;-73
2022/06/21 01:27:59;;;;;;;14.52;4.47;;;;;;;12.52;100.00;101687.34;5032036;28;20026;-72
2022/06/21 01:30:27;;;;;;;12.70;5.20;;;;;;;12.48;100.00;101688.13;5028310;28;20033;-72
2022/06/21 01:32:56;;;;;;;11.40;5.03;;;;;;;12.61;100.00;101700.72;5024539;28;20503;-71
2022/06/21 01:35:28;;;;;;;11.93;5.00;;;;;;;12.74;100.00;101701.88;5032690;28;20496;-72
2022/06/21 01:37:54;;;;;;;11.63;4.63;;;;;;;12.54;100.00;101705.84;5030899;28;20382;-72
2022/06/21 01:40:26;;;;;;;9.05;5.05;;;;;;;12.38;100.00;101701.97;5031809;28;20029;-72
2022/06/21 01:42:57;;;;;;;7.47;4.50;;;;;;;12.37;100.00;101714.28;5025555;28;20163;-72
2022/06/21 01:45:32;;;;;;;10.38;4.70;;;;;;;12.35;100.00;101709.81;5031297;28;20037;-72
2022/06/21 01:48:26;;;;;;;9.35;4.80;;;;;;;12.25;100.00;101706.06;5029079;28;20048;-72
2022/06/21 01:50:54;;;;;;;;;;;;;;;12.25;100.00;101711.31;5029495;28;20036;-73
2022/06/21 01:53:23;;;;;;;8.30;4.70;;;;;;;12.25;100.00;101706.06;5030471;28;19917;-72
2022/06/21 01:55:55;;;;;;;7.18;4.13;;;;;;;12.20;100.00;101707.72;5030504;28;20092;-72
2022/06/21 01:58:25;;;;;;;13.75;5.40;;;;;;;12.18;100.00;101709.41;5031418;28;20151;-72
2022/06/21 02:00:55;;;;;;;11.80;4.60;;;;;;;12.22;100.00;101711.25;5032324;28;20104;-73
2022/06/21 02:03:26;;;;;;;15.40;5.53;;;;;;;12.25;100.00;101721.88;5030393;28;20110;-73
2022/06/21 02:05:55;;;;;;;14.70;5.55;;;;;;;12.19;100.00;101720.00;5031189;28;20120;-71
2022/06/21 02:08:25;;;;;;;10.63;5.18;;;;;;;12.22;100.00;101727.09;5030021;28;20029;-72
2022/06/21 02:10:56;;;;;;;10.43;5.10;;;;;;;12.19;100.00;101712.09;5032295;28;20082;-73
2022/06/21 02:13:28;;;;;;;9.35;5.25;;;;;;;12.13;100.00;101704.91;5025642;28;20025;-72
2022/06/21 02:15:58;;;;;;;13.70;4.50;;;;;;;12.04;100.00;101707.31;5031139;28;20037;-72
2022/06/21 02:18:27;;;;;;;11.30;4.80;;;;;;;11.96;100.00;101706.25;5029937;28;20291;-72
2022/06/21 02:21:01;;;;;;;9.65;4.07;;;;;;;11.94;100.00;101700.03;5031092;28;20090;-72
2022/06/21 02:23:27;;;;;;;10.65;5.00;;;;;;;11.93;100.00;101687.69;5028199;28;20030;-72
2022/06/21 02:25:55;;;;;;;12.18;4.72;;;;;;;11.91;100.00;101689.38;5030579;28;20032;-72
2022/06/21 02:28:22;;;;;;;9.35;5.00;;;;;;;11.88;100.00;101692.88;5031411;28;20033;-72
2022/06/21 02:30:50;;;;;;;15.90;5.03;;;;;;;11.91;100.00;101690.28;5027730;28;20040;-72
2022/06/21 02:33:20;;;;;;;14.00;5.47;;;;;;;11.89;100.00;101685.84;5028045;28;20018;-72
2022/06/21 02:35:54;;;;;;;9.73;4.68;;;;;;;11.84;100.00;101683.06;5032282;28;20041;-73
2022/06/21 02:38:24;;;;;;;8.70;5.00;;;;;;;11.79;100.00;101669.78;5021424;28;20030;-72
2022/06/21 02:41:04;;;;;;;6.60;4.85;;;;;;;11.82;100.00;101672.47;5028587;28;20037;-72
2022/06/21 02:43:40;;;;;;;15.18;5.35;;;;;;;11.81;100.00;101657.53;5030402;28;20030;-72
2022/06/21 02:46:13;;;;;;;11.30;6.57;;;;;;;11.79;100.00;101647.81;5031656;28;20036;-72
2022/06/21 02:48:48;;;;;;;15.43;7.40;;;;;;;11.92;100.00;101644.59;5029121;28;20076;-72
2022/06/21 02:51:19;;;;;;;18.67;8.35;;;;;;;11.84;100.00;101640.88;5030152;28;20155;-72
2022/06/21 02:54:01;;;;;;;14.20;8.57;;;;;;;12.08;100.00;101623.88;5024923;28;20453;-71
2022/06/21 02:56:36;;;;;;;16.73;9.43;;;;;;;11.94;100.00;101606.00;5025589;28;20030;-71
2022/06/21 02:59:03;;;;;;;15.85;9.20;;;;;;;11.94;100.00;101608.63;5031512;28;20485;-71
2022/06/21 03:01:35;;;;;;;15.80;8.63;;;;;;;11.85;100.00;101632.09;5031896;28;20026;-72
2022/06/21 03:04:01;;;;;;;17.15;8.23;;;;;;;11.81;100.00;101625.88;5026364;28;20044;-72
2022/06/21 03:06:29;;;;;;;13.38;7.97;;;;;;;11.84;100.00;101632.94;5031872;28;20094;-71
2022/06/21 03:09:00;;;;;;;12.30;8.13;;;;;;;11.80;100.00;101645.19;5029792;28;20045;-72
2022/06/21 03:11:31;;;;;;;13.27;7.22;;;;;;;11.85;100.00;101633.88;5028049;28;20032;-71
2022/06/21 03:14:01;;;;;;;8.88;6.60;;;;;;;11.74;100.00;101634.47;5030266;28;20057;-72
2022/06/21 03:16:28;;;;;;;8.18;6.68;;;;;;;11.77;100.00;101637.22;5031514;28;20036;-72
2022/06/21 03:18:58;;;;;;;10.82;7.10;;;;;;;11.84;100.00;101629.44;5030668;28;20029;-71
2022/06/21 03:21:30;;;;;;;13.50;6.80;;;;;;;11.75;100.00;101620.44;5025278;28;20029;-71
2022/06/21 03:24:02;;;;;;;11.93;6.07;;;;;;;11.71;100.00;101634.41;5028407;28;20549;-72
2022/06/21 03:26:28;;;;;;;11.80;7.35;;;;;;;11.77;100.00;101634.59;5032770;28;20477;-72
2022/06/21 03:28:54;;;;;;;10.85;7.10;;;;;;;11.80;100.00;101644.28;5035146;28;20134;-72
2022/06/21 03:31:37;;;;;;;13.85;7.00;;;;;;;11.74;100.00;101650.31;5033745;28;20104;-72
2022/06/21 03:34:07;;;;;;;15.13;7.35;;;;;;;11.71;100.00;101649.34;5034375;28;20539;-72
2022/06/21 03:36:33;;;;;;;12.55;7.13;;;;;;;11.67;100.00;101645.75;5034960;28;20386;-72
2022/06/21 03:39:20;;;;;;;11.68;8.00;;;;;;;11.59;100.00;101636.75;5033407;28;20017;-72
2022/06/21 03:41:48;;;;;;;10.93;6.63;;;;;;;11.56;100.00;101631.41;5034573;28;20025;-72
2022/06/21 03:44:22;;;;;;;11.52;7.07;;;;;;;11.59;100.00;101624.44;5033076;28;20033;-72
2022/06/21 03:46:58;;;;;;;11.93;6.90;;;;;;;11.54;100.00;101615.53;5035529;28;20087;-72
2022/06/21 03:49:48;;;;;;;13.32;7.70;;;;;;;11.47;100.00;101598.66;5034834;28;20101;-72
2022/06/21 03:55:26;;;;;;;14.85;8.27;;;;;;;11.60;100.00;101606.91;5033446;28;20035;-72
2022/06/21 03:58:08;;;;;;;11.13;6.65;;;;;;;11.68;100.00;101609.72;5032378;28;20152;-71
2022/06/21 04:00:52;;;;;;;15.15;7.43;;;;;;;11.71;100.00;101602.78;5035121;28;20033;-71
2022/06/21 04:03:30;;;;;;;16.98;7.53;;;;;;;11.70;100.00;101594.84;5034736;28;20032;-72
2022/06/21 04:06:07;;;;;;;20.73;7.15;;;;;;;11.70;100.00;101603.63;5034803;28;20083;-72
2022/06/21 04:09:01;;;;;;;12.50;7.05;;;;;;;11.71;100.00;101601.91;5034057;28;20064;-72
2022/06/21 04:11:57;;;;;;;12.98;6.78;;;;;;;11.82;100.00;101596.00;5032637;28;20030;-72
2022/06/21 04:14:33;;;;;;;11.98;7.40;;;;;;;11.93;100.00;101587.47;5022309;28;20022;-72
2022/06/21 04:17:03;;;;;;;12.07;8.02;;;;;;;11.92;100.00;101577.75;5034144;28;20071;-73
2022/06/21 04:19:40;;;;;;;14.38;8.15;;;;;;;11.92;100.00;101580.41;5027063;28;20458;-72
2022/06/21 04:22:21;;;;;;;17.55;9.68;;;;;;;11.95;100.00;101585.78;5034219;28;20040;-72
2022/06/21 04:25:03;;;;;;;15.00;8.70;;;;;;;12.01;100.00;101578.00;5028793;28;20025;-72
2022/06/21 04:27:37;;;;;;;21.40;10.32;;;;;;;12.04;100.00;101570.16;5027713;28;20052;-72
2022/06/21 04:30:23;;;;;;;15.73;8.88;;;;;;;12.19;100.00;101574.00;5032352;28;20104;-72
2022/06/21 04:32:59;;;;;;;18.67;10.30;;;;;;;12.25;100.00;101584.66;5031829;28;20033;-72
2022/06/21 04:35:33;;;;;;;20.27;9.27;;;;;;;12.36;100.00;101588.44;5021710;28;20030;-72
2022/06/21 04:38:14;;;;;;;;;;;;;;;12.35;100.00;101584.03;5034095;28;20392;-71
2022/06/21 04:40:48;;;;;;;17.33;9.50;;;;;;;12.44;100.00;101584.22;5032717;28;19912;-73
2022/06/21 04:43:40;;;;;;;18.48;9.32;;;;;;;12.54;100.00;101585.28;5030531;28;20029;-72
2022/06/21 04:46:17;;;;;;;17.48;8.85;;;;;;;12.59;100.00;101590.69;5029197;28;20158;-72
2022/06/21 04:48:59;;;;;;;11.07;8.68;;;;;;;12.68;100.00;101582.91;5033892;28;20378;-72
2022/06/21 04:51:32;;;;;;;18.10;9.95;;;;;;;12.79;100.00;101584.03;5032660;28;20164;-72
2022/06/21 04:54:05;;;;;;;22.85;10.20;;;;;;;12.89;100.00;101587.75;5032020;28;20116;-73
2022/06/21 04:56:52;;;;;;;16.50;9.07;;;;;;;12.94;100.00;101579.88;5033449;28;20061;-73
2022/06/21 04:59:29;;;;;;;20.85;8.90;;;;;;;13.01;100.00;101583.53;5028772;28;20029;-73
2022/06/21 05:01:55;;;;;;;16.55;9.52;;;;;;;13.02;100.00;101586.19;5032802;28;20037;-73
2022/06/21 05:04:40;;;;;;;17.10;9.40;;;;;;;13.09;100.00;101589.84;5031994;28;20104;-72
2022/06/21 05:07:13;;;;;;;18.92;8.32;;;;;;;13.15;100.00;101582.91;5030077;28;20033;-72
2022/06/21 05:09:40;;;;;;;20.67;9.13;;;;;;;13.19;100.00;101585.66;5027762;28;20017;-72
2022/06/21 05:12:23;;;;;;;20.95;8.77;;;;;;;13.21;100.00;101587.44;5034277;28;20021;-71
2022/06/21 05:14:53;;;;;;;16.98;8.18;;;;;;;13.22;100.00;101588.34;5033372;28;20377;-73
2022/06/21 05:17:20;;;;;;;16.33;7.80;;;;;;;13.24;100.00;101591.88;5033843;28;20032;-73
2022/06/21 05:19:53;;;;;;;16.98;8.02;;;;;;;13.25;100.00;101593.66;5022736;28;20151;-71
2022/06/21 05:22:24;;;;;;;17.50;8.00;;;;;;;13.29;100.00;101593.75;5031419;28;20028;-73
2022/06/21 05:24:49;;;;;;;17.00;7.53;;;;;;;13.38;100.00;101595.69;5027850;28;20049;-72
2022/06/21 05:27:33;;;;;;;20.08;7.65;;;;;;;13.41;100.00;101598.38;5023680;28;20029;-72
2022/06/21 05:30:07;;;;;;;14.18;6.95;;;;;;;13.48;100.00;101602.94;5029093;28;20049;-73
2022/06/21 05:32:51;;;;;;;18.52;6.90;;;;;;;13.56;100.00;101603.03;5033114;28;20033;-73
2022/06/21 05:35:20;;;;;;;;;;;;;;;13.63;100.00;101606.66;5025881;28;20583;-71
2022/06/21 05:37:59;;;;;;;12.95;6.75;;;;;;;13.67;100.00;101605.84;5031085;28;20368;-68
2022/06/21 05:40:38;;;;;;;21.35;7.95;;;;;;;13.72;100.00;101611.22;5032937;28;20037;-72
2022/06/21 05:43:10;;;;;;;16.88;8.00;;;;;;;13.79;100.00;101613.09;5019446;28;20057;-70
2022/06/21 05:45:35;;;;;;;15.77;8.05;;;;;;;13.78;100.00;101622.81;5025688;28;20035;-69
2022/06/21 05:48:13;;;;;;;17.80;6.75;;;;;;;13.73;100.00;101618.31;5031116;28;20096;-72
2022/06/21 05:50:38;;;;;;;12.57;6.40;;;;;;;13.82;100.00;101624.63;5030167;28;20037;-71
2022/06/21 05:53:14;;;;;;;16.35;6.65;;;;;;;13.91;100.00;101623.88;5023286;28;20543;-70
2022/06/21 05:55:43;;;;;;;14.93;6.55;;;;;;;13.96;100.00;101616.03;5027412;28;20032;-70
2022/06/21 05:58:21;;;;;;;14.20;6.90;;;;;;;14.02;100.00;101612.56;5023080;28;20022;-71
2022/06/21 06:00:53;;;;;;;10.10;6.95;;;;;;;14.08;100.00;101621.50;5023605;28;20029;-70
2022/06/21 06:03:21;;;;;;;14.50;7.22;;;;;;;14.12;100.00;101623.31;5029568;28;20030;-70
2022/06/21 06:05:48;;;;;;;13.25;6.68;;;;;;;14.14;100.00;101624.22;5028917;28;20045;-71
2022/06/21 06:08:20;;;;;;;16.27;6.75;;;;;;;14.24;100.00;101627.00;5026080;28;20029;-71
2022/06/21 06:10:47;;;;;;;18.75;7.13;;;;;;;14.26;100.00;101634.09;5028841;28;20025;-71
2022/06/21 06:13:25;;;;;;;15.65;6.43;;;;;;;14.30;100.00;101632.38;5028749;28;20037;-71
2022/06/21 06:16:00;;;;;;;13.27;6.13;;;;;;;14.37;100.00;101628.94;5031683;28;20087;-71
2022/06/21 06:18:36;;;;;;;12.35;6.28;;;;;;;14.39;100.00;101636.91;5030232;28;20036;-70
2022/06/21 06:21:57;;;;;;;13.23;6.32;;;;;;;14.47;100.00;101641.44;5017813;28;20053;-70
2022/06/21 06:24:30;;;;;;;14.77;6.28;;;;;;;14.55;100.00;101641.53;4986667;28;20038;-69
2022/06/21 06:26:59;;;;;;;13.60;6.65;;;;;;;14.63;100.00;101650.50;5019284;28;20036;-70
2022/06/21 06:29:42;;;;;;;18.17;6.78;;;;;;;14.68;100.00;101647.91;5031461;28;20036;-70
2022/06/21 06:32:24;;;;;;;13.10;5.78;;;;;;;14.72;100.00;101652.38;5030822;28;20116;-71
2022/06/21 06:34:53;;;;;;;13.98;5.97;;;;;;;14.72;100.00;101652.38;5032033;28;20018;-71
2022/06/21 06:37:36;;;;;;;11.40;4.43;;;;;;;14.78;100.00;101652.44;5032066;28;20029;-71
2022/06/21 06:40:05;;;;;;;11.75;3.90;;;;;;;14.80;100.00;101656.00;5030048;28;20044;-70
2022/06/21 06:42:36;;;;;;;11.68;4.43;;;;;;;14.90;100.00;101653.47;5030633;28;20055;-71
2022/06/21 06:45:24;;;;;;;18.20;4.40;;;;;;;14.99;100.00;101661.53;5030397;28;20029;-71
2022/06/21 06:47:56;;;;;;;10.00;4.70;;;;;;;15.03;100.00;101658.06;5030810;28;20473;-71
2022/06/21 06:50:33;;;;;;;10.43;4.15;;;;;;;15.13;100.00;101665.22;5027342;28;20148;-71
2022/06/21 06:53:04;;;;;;;11.15;4.50;;;;;;;15.14;100.00;101668.78;5030980;28;20060;-70
2022/06/21 06:55:42;;;;;;;11.15;4.43;;;;;;;15.21;100.00;101667.09;5025938;28;20374;-70
2022/06/21 06:58:20;;;;;;;9.68;4.07;;;;;;;15.28;100.00;101663.63;5032569;28;20109;-70
2022/06/21 07:00:53;;;;;;;11.63;4.60;;;;;;;15.36;100.00;101667.22;5024124;28;20029;-69
2022/06/21 07:03:23;;;;;;;8.02;3.85;;;;;;;15.34;100.00;101658.34;5034427;28;20032;-70
2022/06/21 07:05:52;;;;;;;10.45;3.45;;;;;;;15.41;100.00;101661.97;5036463;28;20477;-70
2022/06/21 07:08:37;;;;;;;12.32;3.60;;;;;;;15.55;100.00;101667.41;5036358;28;20025;-70
2022/06/21 07:11:11;;;;;;;11.10;2.80;;;;;;;15.59;100.00;101658.59;5035063;28;20036;-70
2022/06/21 07:13:37;;;;;;;8.18;3.30;;;;;;;15.64;100.00;101660.41;5036210;28;20347;-69
2022/06/21 07:16:10;;;;;;;11.05;3.38;;;;;;;15.66;100.00;101657.78;5035651;28;20033;-69
2022/06/21 07:18:53;;;;;;;4.28;2.38;;;;;;;15.76;100.00;101662.28;5034562;28;20040;-70
2022/06/21 07:21:20;;;;;;;6.25;2.60;;;;;;;15.80;100.00;101664.13;5035189;28;20025;-72
2022/06/21 07:23:46;;;;;;;9.55;3.25;;;;;;;15.83;100.00;101664.16;5036122;28;20029;-72
2022/06/21 07:26:34;;;;;;;7.78;3.10;;;;;;;15.98;100.00;101667.81;5035200;28;20144;-70
2022/06/21 07:29:44;;;;;;;6.75;2.90;;;;;;;16.04;100.00;101662.53;5035546;28;20086;-71
2022/06/21 07:32:18;;;;;;;7.85;2.35;;;;;;;16.04;100.00;101664.31;5033449;28;20052;-70
2022/06/21 07:35:06;;;;;;;11.43;2.30;;;;;;;15.89;100.00;101660.66;5035620;28;20021;-70
2022/06/21 07:37:47;;;;;;;7.30;2.67;;;;;;;15.99;100.00;101656.28;5034525;28;20037;-70
2022/06/21 07:40:20;;;;;;;8.95;2.75;;;;;;;16.11;100.00;101653.72;5035576;28;20028;-71
2022/06/21 07:43:05;;;;;;;9.75;2.97;;;;;;;16.25;100.00;101651.16;5034540;28;20037;-71
2022/06/21 07:45:38;;;;;;;9.00;2.78;;;;;;;16.36;100.00;101643.25;5034304;28;20017;-70
2022/06/21 07:48:19;;;;;;;6.38;2.47;;;;;;;16.44;100.00;101644.19;5034784;28;20044;-70
2022/06/21 07:50:52;;;;;;;6.95;2.15;;;;;;;16.55;100.00;101640.69;5034630;28;20400;-70
2022/06/21 07:53:33;;;;;;;8.90;2.63;;;;;;;16.56;100.00;101639.81;5033732;28;20048;-70
2022/06/21 07:56:08;;;;;;;5.65;2.30;;;;;;;16.65;100.00;101634.53;5033537;28;20033;-70
2022/06/21 07:58:42;;;;;;;10.57;3.22;;;;;;;16.65;100.00;101635.41;5035219;28;20383;-70
2022/06/21 08:07:24;;;;;;;9.75;2.70;;;;;;;16.81;100.00;101620.41;5026158;28;20056;-70
2022/06/21 08:09:55;;;;;;;9.25;2.80;;;;;;;16.83;100.00;101623.06;5034789;28;20029;-70
2022/06/21 08:12:20;;;;;;;8.13;3.10;;;;;;;16.88;100.00;101623.09;5034033;28;20473;-70
2022/06/21 08:14:46;;;;;;;11.02;2.72;;;;;;;16.95;100.00;101619.59;5034494;28;20018;-71
2022/06/21 08:17:30;;;;;;;12.70;2.58;;;;;;;17.00;100.00;101616.06;5032977;28;20055;-70
2022/06/21 08:20:05;;;;;;;7.90;2.25;;;;;;;17.18;100.00;101614.34;5029732;28;20473;-71
2022/06/21 08:22:47;;;;;;;7.15;2.58;;;;;;;17.33;100.00;101616.13;5033277;28;20535;-71
2022/06/21 08:25:36;;;;;;;5.80;2.25;;;;;;;17.48;100.00;101613.47;5034514;28;20013;-71
2022/06/21 08:28:11;;;;;;;8.10;3.33;;;;;;;17.63;100.00;101617.03;5021169;28;20083;-71
2022/06/21 08:30:43;;;;;;;6.43;2.42;;;;;;;17.72;100.00;101617.03;5033419;28;20037;-70
2022/06/21 08:33:14;;;;;;;4.85;2.38;;;;;;;17.81;100.00;101610.78;5032199;28;20026;-71
2022/06/21 08:35:47;;;;;;;6.22;2.28;;;;;;;17.94;100.00;101606.38;5033743;28;20026;-72
2022/06/21 08:38:13;;;;;;;11.88;2.40;;;;;;;17.89;100.00;101602.81;5031625;28;20021;-70
2022/06/21 08:40:53;;;;;;;7.85;2.28;;;;;;;18.05;100.00;101604.56;5033379;28;20044;-69
2022/06/21 08:43:46;;;;;;;6.40;2.42;;;;;;;18.08;100.00;101609.91;5033560;28;20025;-70
2022/06/21 08:46:53;;;;;;;6.43;2.40;;;;;;;18.11;100.00;101603.66;5032881;28;20527;-70
2022/06/21 08:49:40;;;;;;;10.13;2.50;;;;;;;18.10;99.49;101601.91;5023903;28;20022;-70
2022/06/21 08:52:20;;;;;;;9.32;2.55;;;;;;;18.30;98.74;101601.84;5034369;28;20482;-71
2022/06/21 08:55:07;;;;;;;11.27;3.10;;;;;;;18.48;97.37;101603.56;5029006;28;20113;-71
2022/06/21 08:57:46;;;;;;;8.18;2.75;;;;;;;18.65;95.27;101603.47;5026366;28;20037;-71
2022/06/21 09:00:48;;;;;;;6.95;2.58;;;;;;;18.56;94.44;101606.19;5033863;28;20027;-69
2022/06/21 09:03:29;;;;;;;10.65;2.75;;;;;;;18.63;97.38;101602.63;5031631;28;20059;-69
2022/06/21 09:06:53;;;;;;;6.57;2.50;;;;;;;18.68;97.04;101595.47;5034363;28;20040;-71
2022/06/21 09:09:49;;;;;;;3.75;2.00;;;;;;;18.81;93.84;101605.16;4989322;28;20065;-70
2022/06/21 09:12:49;;;;;;;10.23;2.30;;;;;;;18.80;96.77;101595.41;4992591;28;20536;-70
2022/06/21 09:15:52;;;;;;;8.07;2.42;;;;;;;18.85;94.18;101593.59;4993395;28;20034;-69
2022/06/21 09:18:18;;;;;;;8.68;3.13;;;;;;;18.99;95.64;101595.31;5033842;28;20113;-70
2022/06/21 09:20:48;;;;;;;8.95;2.60;;;;;;;19.12;94.20;101594.34;5032673;28;20109;-70
2022/06/21 09:23:35;;;;;;;6.47;2.40;;;;;;;19.29;92.79;101593.31;5033504;28;20033;-70
2022/06/21 09:26:09;;;;;;;6.15;2.33;;;;;;;19.27;88.25;101584.47;5033866;28;20026;-70
2022/06/21 09:28:44;;;;;;;5.75;2.70;;;;;;;19.36;88.57;101584.41;5029294;28;20049;-70
2022/06/21 09:31:47;;;;;;;6.45;2.30;;;;;;;19.59;90.06;101585.97;5032289;28;20572;-70
2022/06/21 09:34:40;;;;;;;4.57;2.38;;;;;;;19.75;86.68;101581.38;5033080;28;20366;-70
2022/06/21 09:37:36;;;;;;;8.80;2.17;;;;;;;19.81;85.16;101584.91;5032997;28;20057;-72
2022/06/21 09:40:15;;;;;;;5.95;2.00;;;;;;;19.61;87.68;101578.84;5033343;28;20025;-70
2022/06/21 09:43:03;;;;;;;6.45;2.05;;;;;;;19.79;84.21;101584.00;5026079;28;20389;-69
2022/06/21 09:45:44;;;;;;;5.55;2.17;;;;;;;19.93;87.72;101588.38;5031610;28;20037;-70
2022/06/21 09:48:38;;;;;;;5.78;2.53;;;;;;;19.77;84.10;101580.47;5036170;28;20041;-69
2022/06/21 09:51:09;;;;;;;6.65;2.30;;;;;;;20.06;84.37;101579.28;5037027;28;20101;-69
2022/06/21 09:53:42;;;;;;;5.30;1.95;;;;;;;19.99;77.68;101573.13;5045177;28;20049;-69
2022/06/21 09:56:31;;;;;;;9.38;2.08;;;;;;;19.96;75.15;101570.50;5037362;28;20029;-70
2022/06/21 09:59:41;;;;;;;7.15;2.35;;;;;;;20.09;83.24;101571.25;5033795;28;20072;-69
2022/06/21 10:02:15;;;;;;;9.38;2.90;;;;;;;20.13;79.76;101559.63;5026415;28;20465;-70
2022/06/21 10:04:52;;;;;;;8.00;2.42;;;;;;;20.05;82.15;101558.84;5036058;28;20018;-70
2022/06/21 10:07:30;;;;;;;6.15;2.47;;;;;;;20.11;79.32;101560.56;5033672;28;20064;-70
2022/06/21 10:10:34;;;;;;;4.25;2.22;;;;;;;20.20;80.61;101564.00;5032148;28;20124;-70
2022/06/21 10:13:23;;;;;;;3.90;1.45;;;;;;;20.28;76.25;101560.34;5031203;28;20557;-70
2022/06/21 10:16:26;;;;;;;5.78;2.20;;;;;;;20.12;77.85;101562.34;5031714;28;20028;-70
2022/06/21 10:19:18;;;;;;;5.40;1.65;;;;;;;20.19;74.62;101561.34;5031659;28;20095;-70
2022/06/21 10:21:49;;;;;;;5.72;1.60;;;;;;;20.41;75.02;101553.94;5032417;28;20083;-69
2022/06/21 10:24:20;;;;;;;6.43;2.25;;;;;;;20.46;73.24;101554.75;5032020;28;20025;-70
2022/06/21 10:27:07;;;;;;;4.50;1.50;;;;;;;20.53;67.95;101540.41;5033116;28;20037;-70
2022/06/21 10:29:53;;;;;;;5.28;1.40;;;;;;;20.72;71.31;101535.69;5032204;28;20106;-70
2022/06/21 10:32:27;;;;;;;3.97;1.60;;;;;;;21.04;72.08;101536.16;5030259;28;20385;-69
2022/06/21 10:34:59;;;;;;;4.63;1.60;;;;;;;21.20;66.63;101532.31;5020326;28;20033;-70
2022/06/21 10:37:30;;;;;;;7.50;1.75;;;;;;;21.32;66.49;101533.88;5034457;28;20023;-70
2022/06/21 10:39:55;;;;;;;6.97;2.58;;;;;;;21.26;67.37;101530.44;5036944;28;20057;-69
2022/06/21 10:45:13;;;;;;;6.88;1.98;;;;;;;21.02;70.79;101532.59;5036579;28;20708;-70
2022/06/21 10:48:06;;;;;;;8.50;2.45;;;;;;;21.04;68.10;101528.13;5036450;28;20032;-70
2022/06/21 10:50:56;;;;;;;3.97;2.10;;;;;;;21.09;67.67;101523.53;5032882;28;20078;-68
2022/06/21 10:53:37;;;;;;;7.68;2.50;;;;;;;21.51;77.18;101531.78;5036069;28;20053;-69
2022/06/21 11:01:17;;;;;;;6.90;2.28;;;;;;;22.05;69.24;101533.44;5035844;28;20044;-69
2022/06/21 11:02:37;;;;;;;4.15;1.80;;;;;;;22.37;67.80;101531.03;5033586;28;20029;-69
2022/06/21 11:05:22;;;;;;;5.53;2.47;;;;;;;22.16;65.83;101525.16;5037253;28;20075;-69
2022/06/21 11:08:17;;;;;;;9.18;2.58;;;;;;;22.25;64.55;101540.19;5039603;28;20646;-69
2022/06/21 11:10:53;;;;;;;5.03;2.60;;;;;;;22.43;63.48;101541.63;5035919;28;20132;-70
2022/06/21 11:13:22;;;;;;;4.47;2.45;;;;;;;22.47;62.06;101542.44;5036725;28;20033;-70
2022/06/21 11:16:01;;;;;;;5.32;2.92;;;;;;;22.70;58.54;101525.84;5046524;28;20044;-70
2022/06/21 11:18:53;;;;;;;5.65;2.17;;;;;;;22.65;61.74;101527.72;5029702;28;20047;-70
2022/06/21 11:21:47;;;;;;;8.90;3.53;;;;;;;22.85;63.71;101525.47;5035676;28;20017;-70
2022/06/21 11:24:40;;;;;;;6.90;3.72;;;;;;;22.23;62.71;101524.16;5033085;28;20032;-70
2022/06/21 11:27:25;;;;;;;6.18;2.70;;;;;;;22.06;62.96;101528.97;5026516;28;20037;-70
2022/06/21 11:29:57;;;;;;;4.85;2.50;;;;;;;22.11;68.11;101532.44;5032284;28;20029;-70
2022/06/21 11:32:35;;;;;;;6.78;2.63;;;;;;;22.14;61.43;101527.00;5034784;28;20378;-70
2022/06/21 11:35:04;;;;;;;5.13;2.45;;;;;;;21.88;60.04;101520.38;5035963;28;20100;-70
2022/06/21 11:37:36;;;;;;;8.15;2.58;;;;;;;21.78;61.37;101520.59;5035947;28;20022;-70
2022/06/21 11:40:18;;;;;;;6.97;2.70;;;;;;;22.12;70.30;101523.47;5035181;28;20496;-69
2022/06/21 11:42:50;;;;;;;7.80;3.63;;;;;;;22.13;61.53;101522.56;5034415;28;20060;-71
2022/06/21 11:45:36;;;;;;;10.27;2.38;;;;;;;22.21;66.75;101523.28;5035559;28;20021;-71
2022/06/21 11:48:58;;;;;;;5.95;2.95;;;;;;;22.13;65.68;101519.88;5035699;28;20034;-70
2022/06/21 11:51:29;;;;;;;6.40;3.20;;;;;;;22.18;61.12;101518.00;4987620;28;20031;-71
2022/06/21 11:53:57;;;;;;;5.40;3.53;;;;;;;22.13;69.70;101517.19;4987852;28;20058;-70
2022/06/21 11:57:07;;;;;;;7.93;3.70;;;;;;;22.07;64.53;101520.03;5013461;28;20069;-71
2022/06/21 11:59:57;;;;;;;6.85;3.20;;;;;;;21.94;65.63;101516.69;5034872;28;20506;-69
2022/06/21 12:02:32;;;;;;;12.15;4.18;;;;;;;21.90;64.87;101512.31;5035661;28;20061;-70
2022/06/21 12:05:06;;;;;;;7.40;3.65;;;;;;;21.98;65.46;101504.13;5026384;28;20469;-69
2022/06/21 12:07:39;;;;;;;6.25;3.08;;;;;;;21.89;65.41;101511.44;5028250;28;20026;-69
2022/06/21 12:10:19;;;;;;;7.85;3.20;;;;;;;21.92;65.51;101499.78;5034736;28;20025;-70
2022/06/21 12:12:54;;;;;;;9.63;3.83;;;;;;;22.13;65.42;101494.88;5029223;28;20033;-70
2022/06/21 12:15:28;;;;;;;7.90;3.15;;;;;;;22.16;67.96;101494.81;5034624;28;20040;-71
2022/06/21 12:17:53;;;;;;;6.32;2.90;;;;;;;;;;5034395;28;20021;-69